createdAt,value
2022-10-08T00:04:06.248Z,98.69
2022-10-08T00:09:08.180Z,98.91
2022-10-08T00:14:10.218Z,98.96
2022-10-08T00:19:15.670Z,99.15
2022-10-08T00:24:18.654Z,98.44
2022-10-08T00:29:21.510Z,98.26
2022-10-08T00:34:24.738Z,98.14
2022-10-08T00:39:26.279Z,97.44
2022-10-08T00:44:54.342Z,97.43
2022-10-08T00:50:00.175Z,97.13
2022-10-08T00:55:01.967Z,96.76
2022-10-08T01:00:06.095Z,97.54
2022-10-08T01:05:10.092Z,97.71
2022-10-08T01:10:19.518Z,96.78
2022-10-08T01:15:27.982Z,96.69
2022-10-08T01:20:46.403Z,97.09
2022-10-08T01:25:53.494Z,97.07
2022-10-08T01:31:02.644Z,97.07
2022-10-08T01:36:06.969Z,97.03
2022-10-08T01:41:12.431Z,96.70
2022-10-08T01:46:20.051Z,96.55
2022-10-08T01:51:24.921Z,96.24
2022-10-08T01:56:28.920Z,96.03
2022-10-08T02:01:39.847Z,95.74
2022-10-08T02:06:45.100Z,95.10
2022-10-08T02:11:46.059Z,94.93
2022-10-08T02:16:56.993Z,95.35
2022-10-08T02:22:01.476Z,95.36
2022-10-08T02:27:05.553Z,94.84
2022-10-08T02:32:15.453Z,95.64
2022-10-08T02:37:22.359Z,95.20
2022-10-08T02:42:25.982Z,95.16
2022-10-08T02:47:32.514Z,95.32
2022-10-08T02:52:39.432Z,95.58
2022-10-08T02:57:45.850Z,96.01
2022-10-08T03:02:53.494Z,95.79
2022-10-08T03:07:56.788Z,95.07
2022-10-08T03:13:01.709Z,94.12
2022-10-08T03:18:08.164Z,94.78
2022-10-08T03:23:09.659Z,93.90
2022-10-08T03:28:10.558Z,93.57
2022-10-08T03:33:12.727Z,94.30
2022-10-08T03:38:15.449Z,94.23
2022-10-08T03:43:16.217Z,94.45
2022-10-08T03:48:18.732Z,93.88
2022-10-08T03:53:19.610Z,93.44
2022-10-08T03:58:21.490Z,93.96
2022-10-08T04:03:23.623Z,93.18
2022-10-08T04:08:24.828Z,93.60
2022-10-08T04:13:25.672Z,93.85
2022-10-08T04:18:28.232Z,93.48
2022-10-08T04:23:30.088Z,92.79
2022-10-08T04:28:34.998Z,94.12
2022-10-08T04:33:40.175Z,93.04
2022-10-08T04:38:42.613Z,93.53
2022-10-08T04:43:44.935Z,92.75
2022-10-08T04:48:49.676Z,94.05
2022-10-08T04:53:50.666Z,93.63
2022-10-08T04:58:51.586Z,93.30
2022-10-08T05:03:55.244Z,93.77
2022-10-08T05:08:56.284Z,93.82
2022-10-08T05:13:58.749Z,93.87
2022-10-08T05:19:01.066Z,93.64
2022-10-08T05:24:04.059Z,93.35
2022-10-08T05:29:05.538Z,93.85
2022-10-08T05:34:07.753Z,93.99
2022-10-08T05:39:08.685Z,93.64
2022-10-08T05:44:11.705Z,93.31
2022-10-08T05:49:18.937Z,93.29
2022-10-08T05:54:20.143Z,93.05
2022-10-08T05:59:23.426Z,93.27
2022-10-08T06:04:25.595Z,94.27
2022-10-08T06:09:26.367Z,93.20
2022-10-08T06:14:27.857Z,93.16
2022-10-08T06:19:30.106Z,93.07
2022-10-08T06:24:30.937Z,91.79
2022-10-08T06:29:31.690Z,91.53
2022-10-08T06:34:33.831Z,91.95
2022-10-08T06:39:34.675Z,92.45
2022-10-08T06:44:35.521Z,91.62
2022-10-08T06:49:37.691Z,91.60
2022-10-08T06:54:38.518Z,92.72
2022-10-08T06:59:39.249Z,91.33
2022-10-08T07:04:41.389Z,91.04
2022-10-08T07:09:42.171Z,90.48
2022-10-08T07:14:43.052Z,89.64
2022-10-08T07:19:45.214Z,88.14
2022-10-08T07:24:46.064Z,86.96
2022-10-08T07:29:47.128Z,84.75
2022-10-08T07:34:49.281Z,80.18
2022-10-08T07:39:50.061Z,76.43
2022-10-08T07:44:50.884Z,73.75
2022-10-08T07:49:53.029Z,71.51
2022-10-08T07:54:53.851Z,69.89
2022-10-08T07:59:54.838Z,71.44
2022-10-08T08:04:57.049Z,68.41
2022-10-08T08:09:57.904Z,67.82
2022-10-08T08:14:58.710Z,68.06
2022-10-08T08:20:00.860Z,67.66
2022-10-08T08:25:01.653Z,67.50
2022-10-08T08:30:02.504Z,65.95
2022-10-08T08:35:05.102Z,64.47
2022-10-08T08:40:07.008Z,64.47
2022-10-08T08:45:45.440Z,64.28
2022-10-08T08:50:48.866Z,64.46
2022-10-08T08:55:53.981Z,64.83
2022-10-08T09:01:01.264Z,64.72
2022-10-08T09:06:10.070Z,63.60
2022-10-08T09:11:15.216Z,63.45
2022-10-08T09:16:17.612Z,62.65
2022-10-08T09:21:20.954Z,62.53
2022-10-08T09:26:23.871Z,62.29
2022-10-08T09:31:27.290Z,62.02
2022-10-08T09:36:36.697Z,61.66
2022-10-08T09:41:37.530Z,61.63
2022-10-08T09:46:38.354Z,60.18
2022-10-08T09:51:43.200Z,59.68
2022-10-08T09:56:53.797Z,60.17
2022-10-08T10:01:54.871Z,61.32
2022-10-08T10:06:57.139Z,62.32
2022-10-08T10:12:01.481Z,62.04
2022-10-08T10:17:08.356Z,62.51
2022-10-08T10:22:15.248Z,63.10
2022-10-08T10:27:19.268Z,63.43
2022-10-08T10:32:28.434Z,63.75
2022-10-08T10:37:41.519Z,62.55
2022-10-08T10:42:50.909Z,62.88
2022-10-08T10:47:52.033Z,60.61
2022-10-08T10:53:05.784Z,60.02
2022-10-08T10:58:23.534Z,58.33
2022-10-08T11:03:33.535Z,58.15
2022-10-08T11:08:46.224Z,56.67
2022-10-08T11:13:57.780Z,56.29
2022-10-08T11:19:00.862Z,54.93
2022-10-08T11:24:19.701Z,55.44
2022-10-08T11:29:27.014Z,55.20
2022-10-08T11:34:30.679Z,53.12
2022-10-08T11:39:43.201Z,53.96
2022-10-08T11:44:44.152Z,54.94
2022-10-08T11:49:54.264Z,53.81
2022-10-08T11:54:57.754Z,51.05
2022-10-08T12:00:07.718Z,49.98
2022-10-08T12:05:32.771Z,49.96
2022-10-08T12:10:36.786Z,50.25
2022-10-08T12:15:57.711Z,51.21
2022-10-08T12:21:50.320Z,52.20
2022-10-08T12:27:28.503Z,53.81
2022-10-08T12:32:31.245Z,54.13
2022-10-08T12:38:03.699Z,53.78
2022-10-08T12:43:17.106Z,52.83
2022-10-08T12:48:31.315Z,51.95
2022-10-08T12:53:33.499Z,51.22
2022-10-08T12:58:37.985Z,50.47
2022-10-08T13:03:38.853Z,51.64
2022-10-08T13:08:42.636Z,52.84
2022-10-08T13:13:50.427Z,52.80
2022-10-08T13:18:53.959Z,51.82
2022-10-08T13:23:55.075Z,51.26
2022-10-08T13:29:34.758Z,52.23
2022-10-08T13:34:43.372Z,52.57
2022-10-08T13:39:51.923Z,52.57
2022-10-08T13:44:53.445Z,53.24
2022-10-08T13:50:00.630Z,52.57
2022-10-08T13:55:04.069Z,52.18
2022-10-08T14:00:06.380Z,52.85
2022-10-08T14:05:09.084Z,53.23
2022-10-08T14:10:14.257Z,54.41
2022-10-08T14:15:16.683Z,57.83
2022-10-08T14:20:19.068Z,59.08
2022-10-08T14:25:22.952Z,61.79
2022-10-08T14:30:23.797Z,64.04
2022-10-08T14:35:25.941Z,65.86
2022-10-08T14:40:26.714Z,67.28
2022-10-08T14:45:27.568Z,68.08
2022-10-08T14:50:29.792Z,67.37
2022-10-08T14:55:30.641Z,67.63
2022-10-08T15:00:31.477Z,67.56
2022-10-08T15:05:33.721Z,68.21
2022-10-08T15:10:35.464Z,68.33
2022-10-08T15:15:39.877Z,65.23
2022-10-08T15:20:42.243Z,65.29
2022-10-08T15:25:43.125Z,65.36
2022-10-08T15:30:45.700Z,65.13
2022-10-08T15:35:47.848Z,68.30
2022-10-08T15:40:48.693Z,72.32
2022-10-08T15:45:49.531Z,75.86
2022-10-08T15:51:00.382Z,78.39
2022-10-08T15:56:01.187Z,77.62
2022-10-08T16:01:06.969Z,79.36
2022-10-08T16:06:10.857Z,79.63
2022-10-08T16:11:14.088Z,80.20
2022-10-08T16:16:16.734Z,80.35
2022-10-08T16:21:21.217Z,80.33
2022-10-08T16:26:22.866Z,80.51
2022-10-08T16:31:25.107Z,81.18
2022-10-08T16:36:28.781Z,83.54
2022-10-08T16:41:31.350Z,84.61
2022-10-08T16:46:34.997Z,82.59
2022-10-08T16:51:38.617Z,82.98
2022-10-08T16:56:41.561Z,84.29
2022-10-08T17:01:44.431Z,84.84
2022-10-08T17:06:46.999Z,85.25
2022-10-08T17:11:47.930Z,85.71
2022-10-08T17:16:50.682Z,86.81
2022-10-08T17:21:52.983Z,87.50
2022-10-08T17:26:53.997Z,87.60
2022-10-08T17:31:54.858Z,88.13
2022-10-08T17:36:57.117Z,88.66
2022-10-08T17:41:57.984Z,87.25
2022-10-08T17:47:00.051Z,86.60
2022-10-08T17:52:02.278Z,86.39
2022-10-08T17:57:03.175Z,86.26
2022-10-08T18:02:04.193Z,86.33
2022-10-08T18:07:06.543Z,86.77
2022-10-08T18:12:08.878Z,86.92
2022-10-08T18:17:09.703Z,86.09
2022-10-08T18:22:11.835Z,85.16
2022-10-08T18:27:12.600Z,85.03
2022-10-08T18:32:13.464Z,84.09
2022-10-08T18:37:16.049Z,84.17
2022-10-08T18:42:17.575Z,84.78
2022-10-08T18:47:18.642Z,84.65
2022-10-08T18:52:23.226Z,83.67
2022-10-08T18:57:24.005Z,83.23
2022-10-08T19:02:24.935Z,83.19
2022-10-08T19:07:27.153Z,82.19
2022-10-08T19:12:27.991Z,81.84
2022-10-08T19:17:29.909Z,81.62
2022-10-08T19:22:32.073Z,81.58
2022-10-08T19:27:32.971Z,81.64
2022-10-08T19:32:33.807Z,81.49
2022-10-08T19:37:36.383Z,80.36
2022-10-08T19:42:37.221Z,80.16
2022-10-08T19:47:38.215Z,79.45
2022-10-08T19:52:40.492Z,79.87
2022-10-08T19:57:41.304Z,78.58
2022-10-08T20:02:42.243Z,78.21
2022-10-08T20:07:44.643Z,78.25
2022-10-08T20:12:45.807Z,78.83
2022-10-08T20:17:47.161Z,78.76
2022-10-08T20:22:49.561Z,79.41
2022-10-08T20:27:50.711Z,79.16
2022-10-08T20:32:51.631Z,79.73
2022-10-08T20:37:53.894Z,81.66
2022-10-08T20:42:54.735Z,82.73
2022-10-08T20:47:55.675Z,81.98
2022-10-08T20:52:57.857Z,83.41
2022-10-08T20:57:58.667Z,84.98
2022-10-08T21:02:59.682Z,85.17
2022-10-08T21:08:01.820Z,85.59
2022-10-08T21:13:02.686Z,86.42
2022-10-08T21:18:03.478Z,86.22
2022-10-08T21:23:05.908Z,84.16
2022-10-08T21:31:53.911Z,83.30
2022-10-08T21:36:54.819Z,82.32
2022-10-08T21:41:55.630Z,82.92
2022-10-08T21:46:57.767Z,84.11
2022-10-08T21:51:58.588Z,84.74
2022-10-08T21:56:59.398Z,83.48
2022-10-08T22:02:01.612Z,85.74
2022-10-08T22:07:04.594Z,86.58
2022-10-08T22:12:05.717Z,84.67
2022-10-08T22:17:07.910Z,85.65
2022-10-08T22:22:08.676Z,86.99
2022-10-08T22:27:09.460Z,87.18
2022-10-08T22:32:11.566Z,87.81
2022-10-08T22:37:12.411Z,89.40
2022-10-08T22:42:13.185Z,89.90
2022-10-08T22:47:15.335Z,90.71
2022-10-08T22:52:16.111Z,90.94
2022-10-08T22:57:16.886Z,92.63
2022-10-08T23:02:19.120Z,92.89
2022-10-08T23:07:19.932Z,92.92
2022-10-08T23:12:20.889Z,93.89
2022-10-08T23:17:23.013Z,93.44
2022-10-08T23:22:23.765Z,94.50
2022-10-08T23:27:24.606Z,94.71
2022-10-08T23:32:26.740Z,95.07
2022-10-08T23:37:27.498Z,95.16
2022-10-08T23:42:28.287Z,95.59
2022-10-08T23:47:30.458Z,95.42
2022-10-08T23:52:31.262Z,96.05
2022-10-08T23:57:32.043Z,95.84
